sensor_id;sensor_type;location;lat;lon;timestamp;pressure;altitude;pressure_sealevel;temperature;humidity
60465;BME280;46314;52.392;9.758;2023-03-21T00:01:33;100944.13;;;10.20;85.69
60465;BME280;46314;52.392;9.758;2023-03-21T00:03:59;100934.09;;;10.24;85.41
60465;BME280;46314;52.392;9.758;2023-03-21T00:06:28;100936.16;;;9.79;88.69
60465;BME280;46314;52.392;9.758;2023-03-21T00:08:54;100927.56;;;10.15;87.31
60465;BME280;46314;52.392;9.758;2023-03-21T00:11:20;100928.50;;;10.30;85.32
60465;BME280;46314;52.392;9.758;2023-03-21T00:13:47;100927.97;;;10.57;84.78
60465;BME280;46314;52.392;9.758;2023-03-21T00:16:15;100931.47;;;10.44;84.44
60465;BME280;46314;52.392;9.758;2023-03-21T00:19:02;100916.59;;;10.29;85.13
60465;BME280;46314;52.392;9.758;2023-03-21T00:21:30;100920.78;;;10.27;85.04
60465;BME280;46314;52.392;9.758;2023-03-21T00:24:16;100913.22;;;10.08;86.11
60465;BME280;46314;52.392;9.758;2023-03-21T00:26:43;100917.91;;;9.78;87.91
60465;BME280;46314;52.392;9.758;2023-03-21T00:29:10;100915.44;;;10.35;85.94
60465;BME280;46314;52.392;9.758;2023-03-21T00:31:36;100910.25;;;10.23;85.89
60465;BME280;46314;52.392;9.758;2023-03-21T00:34:03;100906.78;;;10.13;86.07
60465;BME280;46314;52.392;9.758;2023-03-21T00:36:31;100907.19;;;10.54;84.90
60465;BME280;46314;52.392;9.758;2023-03-21T00:38:57;100908.16;;;10.15;86.30
60465;BME280;46314;52.392;9.758;2023-03-21T00:41:24;100899.81;;;10.45;84.46
60465;BME280;46314;52.392;9.758;2023-03-21T00:44:07;100900.16;;;10.09;85.15
60465;BME280;46314;52.392;9.758;2023-03-21T00:46:34;100899.34;;;10.37;85.80
60465;BME280;46314;52.392;9.758;2023-03-21T00:49:12;100902.16;;;10.32;84.76
60465;BME280;46314;52.392;9.758;2023-03-21T00:51:40;100900.59;;;10.21;86.27
60465;BME280;46314;52.392;9.758;2023-03-21T00:54:06;100896.56;;;9.79;87.57
60465;BME280;46314;52.392;9.758;2023-03-21T00:56:33;100896.06;;;9.72;89.30
60465;BME280;46314;52.392;9.758;2023-03-21T00:58:59;100892.78;;;9.70;89.32
60465;BME280;46314;52.392;9.758;2023-03-21T01:01:25;100893.06;;;10.27;86.40
60465;BME280;46314;52.392;9.758;2023-03-21T01:03:52;100884.06;;;9.81;88.85
60465;BME280;46314;52.392;9.758;2023-03-21T01:06:18;100880.22;;;9.77;88.85
60465;BME280;46314;52.392;9.758;2023-03-21T01:08:47;100883.94;;;9.68;90.42
60465;BME280;46314;52.392;9.758;2023-03-21T01:11:21;100881.78;;;9.59;90.49
60465;BME280;46314;52.392;9.758;2023-03-21T01:13:48;100879.41;;;9.77;90.67
60465;BME280;46314;52.392;9.758;2023-03-21T01:16:35;100882.56;;;9.65;90.78
60465;BME280;46314;52.392;9.758;2023-03-21T01:19:04;100878.53;;;9.81;90.60
60465;BME280;46314;52.392;9.758;2023-03-21T01:21:37;100882.44;;;10.10;89.38
60465;BME280;46314;52.392;9.758;2023-03-21T01:24:06;100877.28;;;9.98;89.10
60465;BME280;46314;52.392;9.758;2023-03-21T01:26:33;100876.75;;;10.20;88.65
60465;BME280;46314;52.392;9.758;2023-03-21T01:28:59;100873.19;;;9.90;89.56
60465;BME280;46314;52.392;9.758;2023-03-21T01:31:26;100870.78;;;9.83;91.07
60465;BME280;46314;52.392;9.758;2023-03-21T01:33:52;100871.34;;;9.80;91.33
60465;BME280;46314;52.392;9.758;2023-03-21T01:36:20;100877.66;;;9.86;90.71
60465;BME280;46314;52.392;9.758;2023-03-21T01:38:49;100883.56;;;9.74;91.85
60465;BME280;46314;52.392;9.758;2023-03-21T01:41:20;100876.56;;;10.11;90.73
60465;BME280;46314;52.392;9.758;2023-03-21T01:43:59;100869.06;;;9.88;91.18
60465;BME280;46314;52.392;9.758;2023-03-21T01:46:37;100867.41;;;9.86;90.71
60465;BME280;46314;52.392;9.758;2023-03-21T01:49:26;100862.06;;;9.95;91.45
60465;BME280;46314;52.392;9.758;2023-03-21T01:51:58;100868.19;;;9.92;90.89
60465;BME280;46314;52.392;9.758;2023-03-21T01:54:38;100859.75;;;10.32;89.26
60465;BME280;46314;52.392;9.758;2023-03-21T01:57:11;100866.88;;;10.14;90.00
60465;BME280;46314;52.392;9.758;2023-03-21T01:59:41;100855.25;;;10.12;90.83
60465;BME280;46314;52.392;9.758;2023-03-21T02:02:11;100861.41;;;10.03;90.85
60465;BME280;46314;52.392;9.758;2023-03-21T02:04:40;100860.47;;;9.89;91.75
60465;BME280;46314;52.392;9.758;2023-03-21T02:07:10;100854.34;;;9.92;91.86
60465;BME280;46314;52.392;9.758;2023-03-21T02:09:41;100859.97;;;9.82;92.69
60465;BME280;46314;52.392;9.758;2023-03-21T02:12:11;100848.75;;;9.97;91.60
60465;BME280;46314;52.392;9.758;2023-03-21T02:14:38;100852.16;;;9.89;91.86
60465;BME280;46314;52.392;9.758;2023-03-21T02:17:10;100852.59;;;10.01;91.58
60465;BME280;46314;52.392;9.758;2023-03-21T02:19:56;100845.09;;;10.02;91.29
60465;BME280;46314;52.392;9.758;2023-03-21T02:22:53;100835.19;;;10.20;90.01
60465;BME280;46314;52.392;9.758;2023-03-21T02:25:54;100837.72;;;9.92;91.32
60465;BME280;46314;52.392;9.758;2023-03-21T02:28:27;100839.28;;;10.28;90.75
60465;BME280;46314;52.392;9.758;2023-03-21T02:31:05;100839.06;;;9.65;92.68
60465;BME280;46314;52.392;9.758;2023-03-21T02:34:01;100828.97;;;9.80;93.00
60465;BME280;46314;52.392;9.758;2023-03-21T02:36:54;100830.34;;;10.07;90.94
60465;BME280;46314;52.392;9.758;2023-03-21T02:39:26;100827.81;;;10.58;89.39
60465;BME280;46314;52.392;9.758;2023-03-21T02:42:01;100825.06;;;10.77;86.59
60465;BME280;46314;52.392;9.758;2023-03-21T02:44:36;100824.38;;;10.67;87.03
60465;BME280;46314;52.392;9.758;2023-03-21T02:47:07;100819.88;;;10.71;87.86
60465;BME280;46314;52.392;9.758;2023-03-21T02:49:42;100820.16;;;10.26;88.89
60465;BME280;46314;52.392;9.758;2023-03-21T02:52:15;100824.63;;;9.98;89.75
60465;BME280;46314;52.392;9.758;2023-03-21T02:55:01;100820.75;;;10.47;88.08
60465;BME280;46314;52.392;9.758;2023-03-21T02:57:29;100814.63;;;10.26;89.34
60465;BME280;46314;52.392;9.758;2023-03-21T03:00:10;100808.75;;;10.33;88.56
60465;BME280;46314;52.392;9.758;2023-03-21T03:02:42;100814.75;;;10.40;88.77
60465;BME280;46314;52.392;9.758;2023-03-21T03:05:14;100818.09;;;10.61;86.80
60465;BME280;46314;52.392;9.758;2023-03-21T03:08:09;100813.13;;;10.58;86.62
60465;BME280;46314;52.392;9.758;2023-03-21T03:10:49;100813.47;;;10.27;88.25
60465;BME280;46314;52.392;9.758;2023-03-21T03:13:25;100812.84;;;10.11;88.81
60465;BME280;46314;52.392;9.758;2023-03-21T03:16:02;100811.97;;;10.64;88.06
60465;BME280;46314;52.392;9.758;2023-03-21T03:18:40;100801.63;;;10.21;88.64
60465;BME280;46314;52.392;9.758;2023-03-21T03:21:15;100810.78;;;9.98;90.14
60465;BME280;46314;52.392;9.758;2023-03-21T03:23:47;100808.13;;;10.12;89.66
60465;BME280;46314;52.392;9.758;2023-03-21T03:26:16;100797.97;;;10.26;89.52
60465;BME280;46314;52.392;9.758;2023-03-21T03:28:47;100798.00;;;10.69;86.69
60465;BME280;46314;52.392;9.758;2023-03-21T03:31:20;100800.31;;;10.81;87.06
60465;BME280;46314;52.392;9.758;2023-03-21T03:33:49;100798.59;;;10.66;86.94
60465;BME280;46314;52.392;9.758;2023-03-21T03:36:19;100799.28;;;10.34;88.47
60465;BME280;46314;52.392;9.758;2023-03-21T03:39:00;100802.94;;;10.05;89.39
60465;BME280;46314;52.392;9.758;2023-03-21T03:41:28;100802.91;;;10.53;88.05
60465;BME280;46314;52.392;9.758;2023-03-21T03:44:01;100795.69;;;10.33;88.28
60465;BME280;46314;52.392;9.758;2023-03-21T03:46:30;100794.63;;;10.05;88.99
60465;BME280;46314;52.392;9.758;2023-03-21T03:49:00;100798.88;;;10.46;88.47
60465;BME280;46314;52.392;9.758;2023-03-21T03:51:32;100793.19;;;10.08;89.28
60465;BME280;46314;52.392;9.758;2023-03-21T03:54:05;100800.75;;;10.50;87.55
60465;BME280;46314;52.392;9.758;2023-03-21T03:56:32;100796.06;;;10.70;86.48
60465;BME280;46314;52.392;9.758;2023-03-21T03:59:01;100797.31;;;10.77;86.18
60465;BME280;46314;52.392;9.758;2023-03-21T04:01:28;100786.06;;;10.50;87.25
60465;BME280;46314;52.392;9.758;2023-03-21T04:03:55;100793.66;;;10.63;86.46
60465;BME280;46314;52.392;9.758;2023-03-21T04:06:38;100789.50;;;10.17;89.07
60465;BME280;46314;52.392;9.758;2023-03-21T04:09:05;100789.53;;;10.79;86.56
60465;BME280;46314;52.392;9.758;2023-03-21T04:11:45;100789.16;;;11.05;84.29
60465;BME280;46314;52.392;9.758;2023-03-21T04:14:11;100799.25;;;10.58;85.74
60465;BME280;46314;52.392;9.758;2023-03-21T04:16:37;100795.16;;;10.74;85.95
60465;BME280;46314;52.392;9.758;2023-03-21T04:19:04;100790.78;;;11.06;84.76
60465;BME280;46314;52.392;9.758;2023-03-21T04:21:30;100788.41;;;10.80;86.71
60465;BME280;46314;52.392;9.758;2023-03-21T04:23:57;100785.72;;;10.75;87.33
60465;BME280;46314;52.392;9.758;2023-03-21T04:26:25;100791.38;;;10.22;88.25
60465;BME280;46314;52.392;9.758;2023-03-21T04:28:51;100787.25;;;10.44;87.98
60465;BME280;46314;52.392;9.758;2023-03-21T04:31:18;100786.53;;;10.09;89.98
60465;BME280;46314;52.392;9.758;2023-03-21T04:33:51;100786.88;;;10.69;88.49
60465;BME280;46314;52.392;9.758;2023-03-21T04:36:18;100790.41;;;10.56;88.03
60465;BME280;46314;52.392;9.758;2023-03-21T04:38:44;100790.47;;;10.27;89.02
60465;BME280;46314;52.392;9.758;2023-03-21T04:41:10;100785.84;;;10.22;89.94
60465;BME280;46314;52.392;9.758;2023-03-21T04:43:38;100786.72;;;10.17;88.92
60465;BME280;46314;52.392;9.758;2023-03-21T04:46:05;100778.41;;;10.41;89.17
60465;BME280;46314;52.392;9.758;2023-03-21T04:48:31;100779.81;;;10.15;89.25
60465;BME280;46314;52.392;9.758;2023-03-21T04:50:57;100780.66;;;9.91;92.02
60465;BME280;46314;52.392;9.758;2023-03-21T04:53:24;100773.84;;;10.02;91.97
60465;BME280;46314;52.392;9.758;2023-03-21T04:55:50;100776.63;;;10.51;90.33
60465;BME280;46314;52.392;9.758;2023-03-21T04:58:20;100780.19;;;10.08;91.09
60465;BME280;46314;52.392;9.758;2023-03-21T05:00:48;100773.91;;;9.73;92.87
60465;BME280;46314;52.392;9.758;2023-03-21T05:03:14;100783.34;;;9.96;92.34
60465;BME280;46314;52.392;9.758;2023-03-21T05:05:41;100772.34;;;10.15;92.00
60465;BME280;46314;52.392;9.758;2023-03-21T05:08:07;100773.78;;;10.08;92.46
60465;BME280;46314;52.392;9.758;2023-03-21T05:10:34;100772.75;;;10.03;93.13
60465;BME280;46314;52.392;9.758;2023-03-21T05:13:00;100772.13;;;10.55;89.88
60465;BME280;46314;52.392;9.758;2023-03-21T05:15:26;100777.34;;;10.37;90.55
60465;BME280;46314;52.392;9.758;2023-03-21T05:17:54;100772.03;;;9.93;93.26
60465;BME280;46314;52.392;9.758;2023-03-21T05:20:21;100774.69;;;10.03;92.63
60465;BME280;46314;52.392;9.758;2023-03-21T05:22:47;100773.41;;;10.63;90.02
60465;BME280;46314;52.392;9.758;2023-03-21T05:25:13;100774.03;;;10.35;90.54
60465;BME280;46314;52.392;9.758;2023-03-21T05:27:40;100766.97;;;10.24;91.51
60465;BME280;46314;52.392;9.758;2023-03-21T05:30:08;100768.13;;;10.42;90.77
60465;BME280;46314;52.392;9.758;2023-03-21T05:32:35;100768.13;;;10.18;91.82
60465;BME280;46314;52.392;9.758;2023-03-21T05:35:04;100763.88;;;10.50;89.22
60465;BME280;46314;52.392;9.758;2023-03-21T05:37:31;100769.38;;;10.31;90.68
60465;BME280;46314;52.392;9.758;2023-03-21T05:39:57;100769.56;;;10.15;91.41
60465;BME280;46314;52.392;9.758;2023-03-21T05:42:24;100769.56;;;10.15;91.34
60465;BME280;46314;52.392;9.758;2023-03-21T05:44:51;100765.97;;;10.58;90.18
60465;BME280;46314;52.392;9.758;2023-03-21T05:47:18;100768.97;;;10.61;88.68
60465;BME280;46314;52.392;9.758;2023-03-21T05:49:44;100767.47;;;10.69;88.35
60465;BME280;46314;52.392;9.758;2023-03-21T05:52:12;100765.69;;;10.59;87.57
60465;BME280;46314;52.392;9.758;2023-03-21T05:54:38;100767.69;;;10.73;87.68
60465;BME280;46314;52.392;9.758;2023-03-21T05:57:05;100769.22;;;10.22;89.49
60465;BME280;46314;52.392;9.758;2023-03-21T05:59:31;100772.09;;;10.12;90.57
60465;BME280;46314;52.392;9.758;2023-03-21T06:01:58;100763.72;;;10.60;88.58
60465;BME280;46314;52.392;9.758;2023-03-21T06:04:24;100771.31;;;10.54;88.63
60465;BME280;46314;52.392;9.758;2023-03-21T06:06:51;100775.22;;;10.29;89.25
60465;BME280;46314;52.392;9.758;2023-03-21T06:09:18;100777.06;;;10.58;88.11
60465;BME280;46314;52.392;9.758;2023-03-21T06:11:47;100771.16;;;10.84;86.51
60465;BME280;46314;52.392;9.758;2023-03-21T06:14:14;100783.00;;;11.41;84.22
60465;BME280;46314;52.392;9.758;2023-03-21T06:16:41;100771.41;;;10.87;85.13
60465;BME280;46314;52.392;9.758;2023-03-21T06:19:08;100764.47;;;10.47;87.28
60465;BME280;46314;52.392;9.758;2023-03-21T06:21:35;100768.34;;;11.03;85.14
60465;BME280;46314;52.392;9.758;2023-03-21T06:24:01;100768.22;;;10.56;86.08
60465;BME280;46314;52.392;9.758;2023-03-21T06:26:29;100777.72;;;11.26;84.31
60465;BME280;46314;52.392;9.758;2023-03-21T06:28:56;100777.78;;;10.45;87.04
60465;BME280;46314;52.392;9.758;2023-03-21T06:31:22;100778.94;;;11.01;84.70
60465;BME280;46314;52.392;9.758;2023-03-21T06:33:49;100772.06;;;10.79;84.11
60465;BME280;46314;52.392;9.758;2023-03-21T06:36:16;100774.53;;;11.32;83.18
60465;BME280;46314;52.392;9.758;2023-03-21T06:38:42;100776.69;;;11.03;83.30
60465;BME280;46314;52.392;9.758;2023-03-21T06:41:09;100774.31;;;10.96;85.43
60465;BME280;46314;52.392;9.758;2023-03-21T06:43:37;100770.81;;;11.23;84.44
60465;BME280;46314;52.392;9.758;2023-03-21T06:46:04;100777.84;;;10.83;85.09
60465;BME280;46314;52.392;9.758;2023-03-21T06:48:31;100772.28;;;10.83;85.09
60465;BME280;46314;52.392;9.758;2023-03-21T06:50:58;100781.94;;;11.70;82.15
60465;BME280;46314;52.392;9.758;2023-03-21T06:53:25;100779.44;;;11.22;83.81
60465;BME280;46314;52.392;9.758;2023-03-21T06:55:52;100783.53;;;10.91;84.59
60465;BME280;46314;52.392;9.758;2023-03-21T06:58:27;100787.94;;;11.44;82.71
60465;BME280;46314;52.392;9.758;2023-03-21T07:00:57;100782.34;;;11.63;79.99
60465;BME280;46314;52.392;9.758;2023-03-21T07:03:23;100777.53;;;11.36;82.35
60465;BME280;46314;52.392;9.758;2023-03-21T07:05:50;100788.22;;;11.10;82.63
60465;BME280;46314;52.392;9.758;2023-03-21T07:08:16;100783.25;;;11.59;81.27
60465;BME280;46314;52.392;9.758;2023-03-21T07:10:43;100792.56;;;11.35;80.73
60465;BME280;46314;52.392;9.758;2023-03-21T07:13:10;100780.88;;;11.19;81.22
60465;BME280;46314;52.392;9.758;2023-03-21T07:15:37;100781.63;;;11.06;81.89
60465;BME280;46314;52.392;9.758;2023-03-21T07:18:07;100788.00;;;11.06;82.02
60465;BME280;46314;52.392;9.758;2023-03-21T07:20:34;100780.09;;;10.80;82.03
60465;BME280;46314;52.392;9.758;2023-03-21T07:23:01;100784.81;;;11.32;80.25
60465;BME280;46314;52.392;9.758;2023-03-21T07:25:28;100774.41;;;11.56;78.33
60465;BME280;46314;52.392;9.758;2023-03-21T07:27:54;100782.47;;;11.39;80.20
60465;BME280;46314;52.392;9.758;2023-03-21T07:30:21;100783.75;;;11.61;79.10
60465;BME280;46314;52.392;9.758;2023-03-21T07:32:47;100770.38;;;11.49;78.94
60465;BME280;46314;52.392;9.758;2023-03-21T07:35:16;100771.81;;;11.93;77.17
60465;BME280;46314;52.392;9.758;2023-03-21T07:37:43;100772.75;;;11.55;79.51
60465;BME280;46314;52.392;9.758;2023-03-21T07:40:11;100772.59;;;11.80;77.33
60465;BME280;46314;52.392;9.758;2023-03-21T07:42:39;100775.50;;;12.58;75.46
60465;BME280;46314;52.392;9.758;2023-03-21T07:45:07;100771.13;;;11.68;78.22
60465;BME280;46314;52.392;9.758;2023-03-21T07:47:34;100770.34;;;11.35;79.67
60465;BME280;46314;52.392;9.758;2023-03-21T07:50:01;100770.97;;;12.34;75.50
60465;BME280;46314;52.392;9.758;2023-03-21T07:52:30;100766.25;;;11.46;78.02
60465;BME280;46314;52.392;9.758;2023-03-21T07:54:56;100774.41;;;12.67;73.99
60465;BME280;46314;52.392;9.758;2023-03-21T07:57:23;100765.56;;;12.65;72.51
60465;BME280;46314;52.392;9.758;2023-03-21T07:59:49;100770.38;;;12.09;74.69
60465;BME280;46314;52.392;9.758;2023-03-21T08:02:16;100758.53;;;12.31;74.30
60465;BME280;46314;52.392;9.758;2023-03-21T08:04:43;100773.41;;;12.63;73.04
60465;BME280;46314;52.392;9.758;2023-03-21T08:07:10;100766.56;;;12.69;72.49
60465;BME280;46314;52.392;9.758;2023-03-21T08:09:38;100772.78;;;12.66;73.19
60465;BME280;46314;52.392;9.758;2023-03-21T08:12:05;100771.06;;;12.01;74.81
60465;BME280;46314;52.392;9.758;2023-03-21T08:14:31;100764.41;;;12.30;73.99
60465;BME280;46314;52.392;9.758;2023-03-21T08:16:58;100766.50;;;12.47;73.26
60465;BME280;46314;52.392;9.758;2023-03-21T08:19:24;100775.47;;;12.94;70.97
60465;BME280;46314;52.392;9.758;2023-03-21T08:21:51;100765.53;;;12.79;70.63
60465;BME280;46314;52.392;9.758;2023-03-21T08:24:18;100774.56;;;12.48;72.61
60465;BME280;46314;52.392;9.758;2023-03-21T08:26:46;100767.09;;;12.07;73.44
60465;BME280;46314;52.392;9.758;2023-03-21T08:29:12;100771.19;;;12.10;74.28
60465;BME280;46314;52.392;9.758;2023-03-21T08:31:39;100771.44;;;12.64;72.50
60465;BME280;46314;52.392;9.758;2023-03-21T08:34:05;100770.56;;;12.13;74.20
60465;BME280;46314;52.392;9.758;2023-03-21T08:36:34;100776.41;;;12.53;72.76
60465;BME280;46314;52.392;9.758;2023-03-21T08:39:01;100779.22;;;12.90;71.91
60465;BME280;46314;52.392;9.758;2023-03-21T08:41:28;100774.66;;;12.57;72.49
60465;BME280;46314;52.392;9.758;2023-03-21T08:43:56;100774.88;;;12.47;72.95
60465;BME280;46314;52.392;9.758;2023-03-21T08:46:22;100772.03;;;12.75;72.50
60465;BME280;46314;52.392;9.758;2023-03-21T08:48:48;100778.78;;;12.60;72.41
60465;BME280;46314;52.392;9.758;2023-03-21T08:51:15;100777.56;;;12.38;72.68
60465;BME280;46314;52.392;9.758;2023-03-21T08:53:41;100767.69;;;11.90;75.53
60465;BME280;46314;52.392;9.758;2023-03-21T08:56:08;100775.94;;;12.09;73.65
60465;BME280;46314;52.392;9.758;2023-03-21T08:58:35;100766.47;;;12.24;72.99
60465;BME280;46314;52.392;9.758;2023-03-21T09:01:03;100775.56;;;12.66;71.86
60465;BME280;46314;52.392;9.758;2023-03-21T09:03:30;100767.56;;;12.37;72.58
60465;BME280;46314;52.392;9.758;2023-03-21T09:05:56;100768.13;;;12.76;71.14
60465;BME280;46314;52.392;9.758;2023-03-21T09:08:22;100763.81;;;12.56;71.07
60465;BME280;46314;52.392;9.758;2023-03-21T09:10:51;100773.34;;;12.91;71.20
60465;BME280;46314;52.392;9.758;2023-03-21T09:13:18;100766.97;;;12.77;70.23
60465;BME280;46314;52.392;9.758;2023-03-21T09:15:45;100769.31;;;13.42;68.21
60465;BME280;46314;52.392;9.758;2023-03-21T09:18:13;100766.56;;;13.06;70.18
60465;BME280;46314;52.392;9.758;2023-03-21T09:20:40;100767.41;;;13.52;67.36
60465;BME280;46314;52.392;9.758;2023-03-21T09:23:07;100760.16;;;13.51;66.90
60465;BME280;46314;52.392;9.758;2023-03-21T09:25:33;100771.06;;;12.93;68.98
60465;BME280;46314;52.392;9.758;2023-03-21T09:28:00;100766.19;;;12.99;68.64
60465;BME280;46314;52.392;9.758;2023-03-21T09:30:26;100760.72;;;12.57;70.11
60465;BME280;46314;52.392;9.758;2023-03-21T09:32:53;100757.88;;;13.44;67.44
60465;BME280;46314;52.392;9.758;2023-03-21T09:35:20;100763.72;;;12.97;67.62
60465;BME280;46314;52.392;9.758;2023-03-21T09:37:47;100759.38;;;12.68;69.78
60465;BME280;46314;52.392;9.758;2023-03-21T09:40:17;100760.72;;;12.57;71.43
60465;BME280;46314;52.392;9.758;2023-03-21T09:42:54;100762.22;;;13.36;67.90
60465;BME280;46314;52.392;9.758;2023-03-21T09:45:30;100756.88;;;13.49;67.51
60465;BME280;46314;52.392;9.758;2023-03-21T09:48:01;100755.16;;;14.01;65.61
60465;BME280;46314;52.392;9.758;2023-03-21T09:50:30;100764.47;;;14.28;64.28
60465;BME280;46314;52.392;9.758;2023-03-21T09:52:59;100767.38;;;13.74;66.49
60465;BME280;46314;52.392;9.758;2023-03-21T09:55:28;100763.41;;;13.21;68.17
60465;BME280;46314;52.392;9.758;2023-03-21T09:58:01;100763.84;;;14.00;66.11
60465;BME280;46314;52.392;9.758;2023-03-21T10:00:34;100759.47;;;14.08;64.73
60465;BME280;46314;52.392;9.758;2023-03-21T10:03:04;100758.34;;;13.23;66.64
60465;BME280;46314;52.392;9.758;2023-03-21T10:05:33;100754.75;;;14.26;64.34
60465;BME280;46314;52.392;9.758;2023-03-21T10:08:04;100759.19;;;13.78;65.86
60465;BME280;46314;52.392;9.758;2023-03-21T10:10:34;100768.63;;;13.99;65.67
60465;BME280;46314;52.392;9.758;2023-03-21T10:13:02;100761.94;;;14.09;64.95
60465;BME280;46314;52.392;9.758;2023-03-21T10:15:30;100762.13;;;13.27;66.22
60465;BME280;46314;52.392;9.758;2023-03-21T10:17:59;100769.28;;;13.20;70.00
60465;BME280;46314;52.392;9.758;2023-03-21T10:20:29;100764.47;;;13.12;71.82
60465;BME280;46314;52.392;9.758;2023-03-21T10:22:59;100759.13;;;13.69;72.20
60465;BME280;46314;52.392;9.758;2023-03-21T10:25:31;100755.44;;;13.82;71.46
60465;BME280;46314;52.392;9.758;2023-03-21T10:27:59;100749.13;;;13.68;72.31
60465;BME280;46314;52.392;9.758;2023-03-21T10:30:36;100755.94;;;13.08;73.82
60465;BME280;46314;52.392;9.758;2023-03-21T10:33:06;100743.09;;;14.15;71.71
60465;BME280;46314;52.392;9.758;2023-03-21T10:35:35;100749.06;;;13.59;70.57
60465;BME280;46314;52.392;9.758;2023-03-21T10:38:05;100744.25;;;14.31;70.04
60465;BME280;46314;52.392;9.758;2023-03-21T10:40:32;100742.66;;;14.39;68.49
60465;BME280;46314;52.392;9.758;2023-03-21T10:43:31;100742.50;;;13.87;70.75
60465;BME280;46314;52.392;9.758;2023-03-21T10:45:57;100744.59;;;13.81;72.21
60465;BME280;46314;52.392;9.758;2023-03-21T10:48:24;100730.00;;;14.33;70.57
60465;BME280;46314;52.392;9.758;2023-03-21T10:50:52;100742.00;;;14.51;71.19
60465;BME280;46314;52.392;9.758;2023-03-21T10:53:22;100734.56;;;14.20;70.46
60465;BME280;46314;52.392;9.758;2023-03-21T10:55:55;100725.22;;;14.25;69.09
60465;BME280;46314;52.392;9.758;2023-03-21T10:58:25;100733.47;;;13.04;73.97
60465;BME280;46314;52.392;9.758;2023-03-21T11:00:55;100725.88;;;13.41;74.11
60465;BME280;46314;52.392;9.758;2023-03-21T11:03:24;100733.34;;;13.32;71.58
60465;BME280;46314;52.392;9.758;2023-03-21T11:05:54;100740.25;;;13.12;73.91
60465;BME280;46314;52.392;9.758;2023-03-21T11:08:22;100728.59;;;12.87;75.21
60465;BME280;46314;52.392;9.758;2023-03-21T11:10:59;100728.16;;;13.39;75.33
60465;BME280;46314;52.392;9.758;2023-03-21T11:13:33;100730.22;;;13.96;73.59
60465;BME280;46314;52.392;9.758;2023-03-21T11:16:05;100729.53;;;13.91;74.29
60465;BME280;46314;52.392;9.758;2023-03-21T11:18:39;100725.56;;;13.74;74.61
60465;BME280;46314;52.392;9.758;2023-03-21T11:21:07;100723.09;;;13.41;75.33
60465;BME280;46314;52.392;9.758;2023-03-21T11:23:38;100721.09;;;13.33;77.86
60465;BME280;46314;52.392;9.758;2023-03-21T11:26:08;100730.19;;;13.88;74.90
60465;BME280;46314;52.392;9.758;2023-03-21T11:28:37;100720.16;;;12.56;78.67
60465;BME280;46314;52.392;9.758;2023-03-21T11:31:05;100718.03;;;13.83;75.70
60465;BME280;46314;52.392;9.758;2023-03-21T11:33:34;100716.69;;;13.72;76.71
60465;BME280;46314;52.392;9.758;2023-03-21T11:36:04;100716.31;;;14.14;75.20
60465;BME280;46314;52.392;9.758;2023-03-21T11:38:37;100719.66;;;13.76;75.03
60465;BME280;46314;52.392;9.758;2023-03-21T11:41:04;100718.94;;;14.10;73.77
60465;BME280;46314;52.392;9.758;2023-03-21T11:43:34;100711.97;;;13.81;74.41
60465;BME280;46314;52.392;9.758;2023-03-21T11:46:05;100709.69;;;13.83;75.97
60465;BME280;46314;52.392;9.758;2023-03-21T11:48:36;100710.25;;;13.32;78.29
60465;BME280;46314;52.392;9.758;2023-03-21T11:51:11;100714.47;;;13.06;80.03
60465;BME280;46314;52.392;9.758;2023-03-21T11:53:48;100704.41;;;13.42;77.66
60465;BME280;46314;52.392;9.758;2023-03-21T11:56:22;100703.31;;;13.52;77.60
60465;BME280;46314;52.392;9.758;2023-03-21T11:59:01;100699.47;;;13.39;79.49
60465;BME280;46314;52.392;9.758;2023-03-21T12:01:34;100699.66;;;13.74;76.55
60465;BME280;46314;52.392;9.758;2023-03-21T12:04:10;100701.25;;;13.66;77.64
60465;BME280;46314;52.392;9.758;2023-03-21T12:06:44;100692.97;;;12.98;80.83
60465;BME280;46314;52.392;9.758;2023-03-21T12:09:22;100687.69;;;13.42;78.06
60465;BME280;46314;52.392;9.758;2023-03-21T12:11:59;100689.16;;;13.39;76.83
60465;BME280;46314;52.392;9.758;2023-03-21T12:14:34;100683.66;;;13.03;81.41
60465;BME280;46314;52.392;9.758;2023-03-21T12:17:11;100679.34;;;13.19;81.79
60465;BME280;46314;52.392;9.758;2023-03-21T12:19:53;100680.03;;;13.48;79.99
60465;BME280;46314;52.392;9.758;2023-03-21T12:22:31;100676.88;;;13.18;83.92
60465;BME280;46314;52.392;9.758;2023-03-21T12:25:05;100670.69;;;13.52;81.27
60465;BME280;46314;52.392;9.758;2023-03-21T12:27:39;100671.63;;;13.39;82.13
60465;BME280;46314;52.392;9.758;2023-03-21T12:30:21;100674.06;;;13.32;82.09
60465;BME280;46314;52.392;9.758;2023-03-21T12:32:57;100661.78;;;13.41;82.80
60465;BME280;46314;52.392;9.758;2023-03-21T12:35:36;100666.53;;;13.41;79.97
60465;BME280;46314;52.392;9.758;2023-03-21T12:38:14;100659.03;;;13.50;80.75
60465;BME280;46314;52.392;9.758;2023-03-21T12:40:54;100661.81;;;13.50;80.38
60465;BME280;46314;52.392;9.758;2023-03-21T12:43:28;100663.44;;;13.82;80.35
60465;BME280;46314;52.392;9.758;2023-03-21T12:45:58;100663.28;;;13.16;83.07
60465;BME280;46314;52.392;9.758;2023-03-21T12:48:32;100660.03;;;13.54;81.45
60465;BME280;46314;52.392;9.758;2023-03-21T12:51:03;100652.38;;;13.60;81.48
60465;BME280;46314;52.392;9.758;2023-03-21T12:53:40;100657.09;;;12.97;84.96
60465;BME280;46314;52.392;9.758;2023-03-21T12:56:15;100653.25;;;12.61;87.58
60465;BME280;46314;52.392;9.758;2023-03-21T12:58:46;100655.31;;;12.56;85.71
60465;BME280;46314;52.392;9.758;2023-03-21T13:01:15;100641.94;;;13.12;85.05
60465;BME280;46314;52.392;9.758;2023-03-21T13:03:47;100636.03;;;13.36;83.72
60465;BME280;46314;52.392;9.758;2023-03-21T13:06:17;100646.28;;;12.73;86.02